EWG48K LFMN-EDDH
Flight info
| Callsign | EWG48K |
|---|---|
| Flight time | 1h 42m |
| Altitude | 36000 |
| Route | BASIP DCT ANAKI DCT ABESI DCT LOKTA/N0447F370 DCT TEDGO DCT HAREM DCT LOHRE DCT ELNAT/N0445F380 P605 NOLGO NOLGO3P |
| Aircraft | A320/M-SDE3FGHIRWY/LB1 |
Departure
| Time | 2026-04-23 17:09 |
|---|---|
| Airport | Nice-Côte d'Azur Airport (LFMN) |
Arrival
| Time | 2026-04-23 18:51 |
|---|---|
| Airport | Hamburg Helmut Schmidt Airport (EDDH) |
| Time | Latitude | Longitude | Altitude | Speed | Heading |
|---|---|---|---|---|---|
| 2026-04-23 16:14 | 43.66424 | 7.21413 | 21 ft | 0 kts | 352° |
| 2026-04-23 16:55 | 43.66422 | 7.21413 | 48 ft | 2 kts | 352° |
| 2026-04-23 16:56 | 43.66405 | 7.21416 | 20 ft | 2 kts | 354° |
| 2026-04-23 16:56 | 43.66389 | 7.21418 | 21 ft | 2 kts | 357° |
| 2026-04-23 16:56 | 43.66378 | 7.21419 | 21 ft | 2 kts | 1° |
| 2026-04-23 16:56 | 43.66361 | 7.21417 | 20 ft | 2 kts | 23° |
| 2026-04-23 16:57 | 43.66349 | 7.21403 | 20 ft | 2 kts | 78° |
| 2026-04-23 16:57 | 43.66348 | 7.21394 | 24 ft | 0 kts | 82° |
| 2026-04-23 17:01 | 43.66348 | 7.21395 | 24 ft | 0 kts | 82° |
| 2026-04-23 17:01 | 43.66349 | 7.21403 | 20 ft | 2 kts | 82° |
| 2026-04-23 17:01 | 43.66352 | 7.21429 | 23 ft | 4 kts | 81° |
| 2026-04-23 17:01 | 43.66364 | 7.21470 | 22 ft | 6 kts | 54° |
| 2026-04-23 17:02 | 43.66383 | 7.21528 | 21 ft | 8 kts | 99° |
| 2026-04-23 17:02 | 43.66335 | 7.21592 | 21 ft | 11 kts | 139° |
| 2026-04-23 17:02 | 43.66275 | 7.21601 | 21 ft | 10 kts | 222° |
| 2026-04-23 17:02 | 43.66221 | 7.21515 | 19 ft | 15 kts | 225° |
| 2026-04-23 17:03 | 43.66136 | 7.21398 | 18 ft | 19 kts | 224° |
| 2026-04-23 17:03 | 43.66043 | 7.21268 | 19 ft | 20 kts | 225° |
| 2026-04-23 17:03 | 43.65944 | 7.21134 | 21 ft | 18 kts | 223° |
| 2026-04-23 17:03 | 43.65852 | 7.21010 | 22 ft | 20 kts | 225° |
| 2026-04-23 17:04 | 43.65751 | 7.20870 | 22 ft | 22 kts | 226° |
| 2026-04-23 17:04 | 43.65638 | 7.20712 | 19 ft | 23 kts | 229° |
| 2026-04-23 17:04 | 43.65565 | 7.20612 | 20 ft | 14 kts | 221° |
| 2026-04-23 17:04 | 43.65487 | 7.20506 | 18 ft | 18 kts | 225° |
| 2026-04-23 17:05 | 43.65390 | 7.20383 | 19 ft | 19 kts | 221° |
| 2026-04-23 17:05 | 43.65327 | 7.20291 | 20 ft | 9 kts | 207° |
| 2026-04-23 17:05 | 43.65268 | 7.20311 | 21 ft | 11 kts | 138° |
| 2026-04-23 17:05 | 43.65214 | 7.20385 | 22 ft | 11 kts | 135° |
| 2026-04-23 17:06 | 43.65158 | 7.20462 | 24 ft | 12 kts | 135° |
| 2026-04-23 17:06 | 43.65076 | 7.20515 | 23 ft | 15 kts | 179° |
| 2026-04-23 17:06 | 43.64983 | 7.20451 | 29 ft | 15 kts | 225° |
| 2026-04-23 17:06 | 43.64901 | 7.20341 | 28 ft | 18 kts | 223° |
| 2026-04-23 17:07 | 43.64823 | 7.20231 | 25 ft | 9 kts | 221° |
| 2026-04-23 17:07 | 43.64763 | 7.20183 | 26 ft | 11 kts | 185° |
| 2026-04-23 17:07 | 43.64704 | 7.20249 | 27 ft | 12 kts | 113° |
| 2026-04-23 17:07 | 43.64704 | 7.20295 | 27 ft | 2 kts | 63° |
| 2026-04-23 17:08 | 43.64731 | 7.20332 | 27 ft | 9 kts | 43° |
| 2026-04-23 17:08 | 43.64840 | 7.20482 | 29 ft | 52 kts | 45° |
| 2026-04-23 17:08 | 43.65265 | 7.21064 | 25 ft | 117 kts | 43° |
| 2026-04-23 17:08 | 43.65963 | 7.22026 | 29 ft | 165 kts | 45° |
| 2026-04-23 17:09 | 43.66804 | 7.23166 | 521 ft | 169 kts | 46° |
| 2026-04-23 17:09 | 43.67336 | 7.24558 | 1113 ft | 166 kts | 94° |
| 2026-04-23 17:09 | 43.66869 | 7.25924 | 1823 ft | 162 kts | 143° |
| 2026-04-23 17:09 | 43.65900 | 7.26727 | 2384 ft | 163 kts | 148° |
| 2026-04-23 17:10 | 43.65005 | 7.27672 | 2913 ft | 163 kts | 128° |
| 2026-04-23 17:10 | 43.64235 | 7.28878 | 3280 ft | 178 kts | 130° |
| 2026-04-23 17:10 | 43.63388 | 7.30250 | 3566 ft | 197 kts | 119° |
| 2026-04-23 17:10 | 43.63064 | 7.32137 | 3965 ft | 210 kts | 78° |
| 2026-04-23 17:11 | 43.63557 | 7.34042 | 4721 ft | 213 kts | 67° |
| 2026-04-23 17:11 | 43.64098 | 7.35955 | 5497 ft | 217 kts | 69° |
| 2026-04-23 17:11 | 43.64625 | 7.37922 | 6274 ft | 219 kts | 69° |
| 2026-04-23 17:11 | 43.65141 | 7.39917 | 7030 ft | 223 kts | 69° |
| 2026-04-23 17:12 | 43.65663 | 7.41959 | 7745 ft | 227 kts | 69° |
| 2026-04-23 17:12 | 43.66199 | 7.44040 | 8470 ft | 232 kts | 68° |
| 2026-04-23 17:12 | 43.66748 | 7.46158 | 9199 ft | 236 kts | 67° |
| 2026-04-23 17:12 | 43.67311 | 7.48322 | 9908 ft | 242 kts | 67° |
| 2026-04-23 17:13 | 43.67900 | 7.50571 | 10336 ft | 261 kts | 66° |
| 2026-04-23 17:13 | 43.68552 | 7.53024 | 10656 ft | 282 kts | 66° |
| 2026-04-23 17:13 | 43.69262 | 7.55670 | 10925 ft | 305 kts | 66° |
| 2026-04-23 17:13 | 43.70021 | 7.58489 | 11122 ft | 329 kts | 66° |
| 2026-04-23 17:14 | 43.70840 | 7.61549 | 11329 ft | 349 kts | 67° |
| 2026-04-23 17:14 | 43.71684 | 7.64744 | 11889 ft | 357 kts | 67° |
| 2026-04-23 17:14 | 43.72535 | 7.67980 | 12558 ft | 361 kts | 67° |
| 2026-04-23 17:14 | 43.73526 | 7.71167 | 13226 ft | 361 kts | 56° |
| 2026-04-23 17:15 | 43.75038 | 7.73926 | 13915 ft | 360 kts | 45° |
| 2026-04-23 17:15 | 43.76707 | 7.76534 | 14534 ft | 364 kts | 45° |
| 2026-04-23 17:15 | 43.78395 | 7.79170 | 15111 ft | 368 kts | 44° |
| 2026-04-23 17:15 | 43.80105 | 7.81839 | 15667 ft | 372 kts | 44° |
| 2026-04-23 17:16 | 43.81834 | 7.84540 | 16213 ft | 377 kts | 44° |
| 2026-04-23 17:16 | 43.83581 | 7.87271 | 16773 ft | 381 kts | 44° |
| 2026-04-23 17:16 | 43.85346 | 7.90038 | 17346 ft | 385 kts | 44° |
| 2026-04-23 17:16 | 43.87127 | 7.92837 | 17928 ft | 389 kts | 43° |
| 2026-04-23 17:17 | 43.88902 | 7.95714 | 18485 ft | 397 kts | 47° |
| 2026-04-23 17:17 | 43.90397 | 7.98985 | 19009 ft | 406 kts | 56° |
| 2026-04-23 17:17 | 43.91313 | 8.01252 | 19370 ft | 408 kts | 56° |
| 2026-04-23 17:17 | 43.93188 | 8.05864 | 20117 ft | 413 kts | 55° |
| 2026-04-23 17:18 | 43.96039 | 8.12833 | 21196 ft | 418 kts | 55° |
| 2026-04-23 17:18 | 43.97482 | 8.16361 | 21704 ft | 421 kts | 56° |
| 2026-04-23 17:18 | 43.98913 | 8.19869 | 22194 ft | 424 kts | 56° |
| 2026-04-23 17:19 | 44.00370 | 8.23451 | 22665 ft | 428 kts | 56° |
| 2026-04-23 17:19 | 44.01838 | 8.27066 | 23133 ft | 431 kts | 56° |
| 2026-04-23 17:19 | 44.03313 | 8.30705 | 23587 ft | 434 kts | 56° |
| 2026-04-23 17:19 | 44.04797 | 8.34376 | 23987 ft | 437 kts | 56° |
| 2026-04-23 17:20 | 44.06288 | 8.38074 | 24361 ft | 440 kts | 56° |
| 2026-04-23 17:20 | 44.09297 | 8.45540 | 25099 ft | 445 kts | 56° |
| 2026-04-23 17:21 | 44.12342 | 8.53090 | 25811 ft | 450 kts | 56° |
| 2026-04-23 17:21 | 44.13873 | 8.56903 | 26174 ft | 452 kts | 56° |
| 2026-04-23 17:21 | 44.17065 | 8.64486 | 26887 ft | 452 kts | 49° |
| 2026-04-23 17:22 | 44.19139 | 8.67742 | 27228 ft | 448 kts | 38° |
| 2026-04-23 17:22 | 44.24301 | 8.72342 | 27916 ft | 438 kts | 17° |
| 2026-04-23 17:23 | 44.30185 | 8.74126 | 28590 ft | 433 kts | 2° |
| 2026-04-23 17:23 | 44.33188 | 8.74590 | 28962 ft | 434 kts | 2° |
| 2026-04-23 17:23 | 44.39123 | 8.75532 | 29973 ft | 430 kts | 2° |
| 2026-04-23 17:24 | 44.42092 | 8.76007 | 30447 ft | 429 kts | 2° |
| 2026-04-23 17:24 | 44.45046 | 8.76480 | 30890 ft | 427 kts | 2° |
| 2026-04-23 17:24 | 44.50919 | 8.77419 | 31820 ft | 422 kts | 2° |
| 2026-04-23 17:25 | 44.56728 | 8.78335 | 32791 ft | 418 kts | 2° |
| 2026-04-23 17:25 | 44.59607 | 8.78790 | 33235 ft | 416 kts | 2° |
| 2026-04-23 17:26 | 44.65329 | 8.79691 | 34198 ft | 412 kts | 2° |
| 2026-04-23 17:26 | 44.71005 | 8.80593 | 34916 ft | 410 kts | 2° |
| 2026-04-23 17:27 | 44.76681 | 8.81499 | 35539 ft | 411 kts | 3° |
| 2026-04-23 17:27 | 44.79519 | 8.81956 | 35819 ft | 411 kts | 3° |
| 2026-04-23 17:27 | 44.82366 | 8.82412 | 36078 ft | 412 kts | 3° |
| 2026-04-23 17:27 | 44.85226 | 8.82864 | 36160 ft | 415 kts | 3° |
| 2026-04-23 17:28 | 44.91012 | 8.83779 | 36165 ft | 420 kts | 3° |
| 2026-04-23 17:28 | 44.96822 | 8.84712 | 36166 ft | 420 kts | 4° |
| 2026-04-23 17:29 | 45.02629 | 8.85650 | 36165 ft | 420 kts | 4° |
| 2026-04-23 17:30 | 45.10367 | 8.86895 | 36167 ft | 420 kts | 4° |
| 2026-04-23 17:30 | 45.20032 | 8.88462 | 36169 ft | 421 kts | 4° |
| 2026-04-23 17:31 | 45.25851 | 8.89407 | 36163 ft | 421 kts | 4° |
| 2026-04-23 17:31 | 45.31670 | 8.90348 | 36162 ft | 421 kts | 4° |
| 2026-04-23 17:32 | 45.37494 | 8.91300 | 36146 ft | 421 kts | 4° |
| 2026-04-23 17:32 | 45.43318 | 8.92255 | 36149 ft | 422 kts | 5° |
| 2026-04-23 17:33 | 45.49149 | 8.93208 | 36146 ft | 422 kts | 5° |
| 2026-04-23 17:33 | 45.54982 | 8.94157 | 36149 ft | 422 kts | 5° |
| 2026-04-23 17:34 | 45.60819 | 8.95113 | 36142 ft | 422 kts | 5° |
| 2026-04-23 17:35 | 45.69543 | 8.96556 | 36147 ft | 423 kts | 5° |
| 2026-04-23 17:35 | 45.78310 | 8.98010 | 36143 ft | 423 kts | 5° |
| 2026-04-23 17:36 | 45.84162 | 8.98976 | 36137 ft | 423 kts | 5° |
| 2026-04-23 17:36 | 45.90010 | 8.99942 | 36143 ft | 423 kts | 5° |
| 2026-04-23 17:37 | 45.95873 | 9.00911 | 36139 ft | 424 kts | 6° |
| 2026-04-23 17:38 | 46.04640 | 9.02369 | 36138 ft | 424 kts | 6° |
| 2026-04-23 17:38 | 46.10515 | 9.03359 | 36137 ft | 425 kts | 6° |
| 2026-04-23 17:39 | 46.16395 | 9.04335 | 36142 ft | 426 kts | 5° |
| 2026-04-23 17:39 | 46.22306 | 9.04910 | 36139 ft | 426 kts | 2° |
| 2026-04-23 17:40 | 46.28242 | 9.05184 | 36144 ft | 427 kts | 1° |
| 2026-04-23 17:40 | 46.34179 | 9.05482 | 36150 ft | 427 kts | 2° |
| 2026-04-23 17:41 | 46.40076 | 9.05884 | 36162 ft | 426 kts | 3° |
| 2026-04-23 17:41 | 46.49010 | 9.06521 | 36188 ft | 427 kts | 3° |
| 2026-04-23 17:42 | 46.57883 | 9.07119 | 36206 ft | 427 kts | 3° |
| 2026-04-23 17:43 | 46.63826 | 9.07517 | 36133 ft | 429 kts | 6° |
| 2026-04-23 17:43 | 46.69825 | 9.07925 | 36227 ft | 433 kts | 6° |
| 2026-04-23 17:44 | 46.75835 | 9.08343 | 36240 ft | 432 kts | 6° |
| 2026-04-23 17:44 | 46.84848 | 9.08964 | 36251 ft | 432 kts | 6° |
| 2026-04-23 17:45 | 46.93859 | 9.09580 | 36256 ft | 432 kts | 6° |
| 2026-04-23 17:46 | 47.01851 | 9.10138 | 36258 ft | 432 kts | 6° |
| 2026-04-23 17:46 | 47.07864 | 9.10552 | 36263 ft | 433 kts | 6° |
| 2026-04-23 17:47 | 47.13878 | 9.10962 | 36265 ft | 433 kts | 6° |
| 2026-04-23 17:48 | 47.22900 | 9.11604 | 36275 ft | 433 kts | 6° |
| 2026-04-23 17:48 | 47.28924 | 9.12025 | 36275 ft | 433 kts | 6° |
| 2026-04-23 17:49 | 47.34948 | 9.12445 | 36278 ft | 433 kts | 6° |
| 2026-04-23 17:49 | 47.40978 | 9.12874 | 36272 ft | 434 kts | 6° |
| 2026-04-23 17:50 | 47.47010 | 9.13302 | 36272 ft | 434 kts | 6° |
| 2026-04-23 17:50 | 47.56060 | 9.13939 | 36279 ft | 434 kts | 6° |
| 2026-04-23 17:51 | 47.62056 | 9.14360 | 36278 ft | 434 kts | 7° |
| 2026-04-23 17:52 | 47.71113 | 9.14996 | 36277 ft | 434 kts | 7° |
| 2026-04-23 17:52 | 47.80175 | 9.15640 | 36278 ft | 435 kts | 7° |
| 2026-04-23 17:53 | 47.89243 | 9.16304 | 36279 ft | 435 kts | 7° |
| 2026-04-23 17:54 | 47.95292 | 9.16745 | 36279 ft | 435 kts | 7° |
| 2026-04-23 17:54 | 48.04377 | 9.17389 | 36272 ft | 435 kts | 7° |
| 2026-04-23 17:55 | 48.13420 | 9.18042 | 36280 ft | 436 kts | 7° |
| 2026-04-23 17:56 | 48.19474 | 9.18585 | 36279 ft | 435 kts | 9° |
| 2026-04-23 17:56 | 48.28476 | 9.20175 | 36271 ft | 434 kts | 12° |
| 2026-04-23 17:57 | 48.34475 | 9.21296 | 36276 ft | 435 kts | 11° |
| 2026-04-23 17:58 | 48.43502 | 9.22819 | 36273 ft | 435 kts | 11° |
| 2026-04-23 17:58 | 48.49527 | 9.23822 | 36277 ft | 435 kts | 11° |
| 2026-04-23 17:59 | 48.55549 | 9.24845 | 36279 ft | 435 kts | 11° |
| 2026-04-23 17:59 | 48.61575 | 9.25882 | 36279 ft | 436 kts | 11° |
| 2026-04-23 18:00 | 48.67571 | 9.26848 | 36280 ft | 436 kts | 10° |
| 2026-04-23 18:00 | 48.73612 | 9.27743 | 36280 ft | 436 kts | 10° |
| 2026-04-23 18:01 | 48.79659 | 9.28640 | 36278 ft | 436 kts | 10° |
| 2026-04-23 18:01 | 48.85700 | 9.29554 | 36277 ft | 436 kts | 10° |
| 2026-04-23 18:02 | 48.91743 | 9.30491 | 36276 ft | 436 kts | 10° |
| 2026-04-23 18:02 | 48.97782 | 9.31427 | 36275 ft | 436 kts | 10° |
| 2026-04-23 18:03 | 49.03818 | 9.32358 | 36277 ft | 436 kts | 10° |
| 2026-04-23 18:03 | 49.09860 | 9.33284 | 36275 ft | 436 kts | 10° |
| 2026-04-23 18:04 | 49.15859 | 9.34220 | 36273 ft | 436 kts | 10° |
| 2026-04-23 18:04 | 49.21892 | 9.35168 | 36268 ft | 436 kts | 10° |
| 2026-04-23 18:05 | 49.27936 | 9.36107 | 36270 ft | 436 kts | 10° |
| 2026-04-23 18:05 | 49.33984 | 9.37053 | 36272 ft | 436 kts | 10° |
| 2026-04-23 18:06 | 49.40032 | 9.38003 | 36274 ft | 436 kts | 10° |
| 2026-04-23 18:06 | 49.46073 | 9.38957 | 36274 ft | 437 kts | 9° |
| 2026-04-23 18:07 | 49.52120 | 9.39904 | 36273 ft | 437 kts | 9° |
| 2026-04-23 18:07 | 49.58167 | 9.40860 | 36272 ft | 437 kts | 9° |
| 2026-04-23 18:08 | 49.63193 | 9.41660 | 36270 ft | 437 kts | 9° |
| 2026-04-23 18:08 | 49.70266 | 9.42789 | 36272 ft | 437 kts | 9° |
| 2026-04-23 18:09 | 49.76312 | 9.43744 | 36273 ft | 437 kts | 9° |
| 2026-04-23 18:09 | 49.82368 | 9.44714 | 36271 ft | 437 kts | 9° |
| 2026-04-23 18:10 | 49.88377 | 9.45683 | 36271 ft | 438 kts | 9° |
| 2026-04-23 18:10 | 49.94444 | 9.46649 | 36271 ft | 438 kts | 9° |
| 2026-04-23 18:11 | 50.00508 | 9.47633 | 36267 ft | 438 kts | 9° |
| 2026-04-23 18:11 | 50.06572 | 9.48619 | 36267 ft | 438 kts | 9° |
| 2026-04-23 18:12 | 50.12635 | 9.49643 | 36266 ft | 438 kts | 10° |
| 2026-04-23 18:12 | 50.18691 | 9.50728 | 36272 ft | 438 kts | 10° |
| 2026-04-23 18:13 | 50.24755 | 9.51821 | 36275 ft | 439 kts | 10° |
| 2026-04-23 18:13 | 50.30821 | 9.52902 | 36280 ft | 439 kts | 9° |
| 2026-04-23 18:14 | 50.36884 | 9.53986 | 36282 ft | 439 kts | 9° |
| 2026-04-23 18:14 | 50.42952 | 9.55058 | 36293 ft | 439 kts | 9° |
| 2026-04-23 18:15 | 50.49014 | 9.56129 | 36295 ft | 438 kts | 9° |
| 2026-04-23 18:15 | 50.55077 | 9.57216 | 36297 ft | 438 kts | 9° |
| 2026-04-23 18:16 | 50.61134 | 9.58300 | 36299 ft | 438 kts | 9° |
| 2026-04-23 18:16 | 50.67194 | 9.59396 | 36296 ft | 438 kts | 9° |
| 2026-04-23 18:17 | 50.76240 | 9.61037 | 36300 ft | 438 kts | 9° |
| 2026-04-23 18:17 | 50.82298 | 9.62124 | 36301 ft | 438 kts | 9° |
| 2026-04-23 18:18 | 50.88355 | 9.63219 | 36305 ft | 438 kts | 9° |
| 2026-04-23 18:18 | 50.94416 | 9.64317 | 36303 ft | 438 kts | 9° |
| 2026-04-23 18:19 | 51.00464 | 9.65431 | 36303 ft | 438 kts | 9° |
| 2026-04-23 18:19 | 51.06522 | 9.66548 | 36303 ft | 438 kts | 9° |
| 2026-04-23 18:20 | 51.12575 | 9.67648 | 36301 ft | 438 kts | 9° |
| 2026-04-23 18:20 | 51.18629 | 9.68770 | 36297 ft | 438 kts | 9° |
| 2026-04-23 18:21 | 51.24681 | 9.69850 | 36290 ft | 438 kts | 8° |
| 2026-04-23 18:21 | 51.30740 | 9.70817 | 36289 ft | 438 kts | 7° |
| 2026-04-23 18:22 | 51.36802 | 9.71754 | 36289 ft | 438 kts | 7° |
| 2026-04-23 18:22 | 51.42747 | 9.72708 | 36287 ft | 438 kts | 8° |
| 2026-04-23 18:23 | 51.51842 | 9.74260 | 36290 ft | 438 kts | 8° |
| 2026-04-23 18:24 | 51.60913 | 9.76027 | 36285 ft | 438 kts | 8° |
| 2026-04-23 18:25 | 51.69989 | 9.77765 | 36284 ft | 438 kts | 8° |
| 2026-04-23 18:25 | 51.76036 | 9.78909 | 36280 ft | 437 kts | 8° |
| 2026-04-23 18:26 | 51.82084 | 9.80066 | 36280 ft | 437 kts | 8° |
| 2026-04-23 18:26 | 51.87274 | 9.81057 | 36279 ft | 437 kts | 8° |
| 2026-04-23 18:27 | 51.93690 | 9.82298 | 36280 ft | 437 kts | 8° |
| 2026-04-23 18:27 | 51.99684 | 9.83462 | 36280 ft | 437 kts | 8° |
| 2026-04-23 18:28 | 52.05755 | 9.84645 | 36209 ft | 435 kts | 8° |
| 2026-04-23 18:28 | 52.08722 | 9.85219 | 35607 ft | 434 kts | 8° |
| 2026-04-23 18:28 | 52.11733 | 9.85806 | 34905 ft | 435 kts | 8° |
| 2026-04-23 18:28 | 52.14744 | 9.86418 | 34190 ft | 437 kts | 8° |
| 2026-04-23 18:29 | 52.17756 | 9.87057 | 33367 ft | 438 kts | 8° |
| 2026-04-23 18:29 | 52.20790 | 9.87715 | 32524 ft | 440 kts | 9° |
| 2026-04-23 18:29 | 52.23833 | 9.88375 | 31693 ft | 442 kts | 8° |
| 2026-04-23 18:29 | 52.26836 | 9.89024 | 31511 ft | 429 kts | 8° |
| 2026-04-23 18:30 | 52.29745 | 9.89652 | 31379 ft | 415 kts | 8° |
| 2026-04-23 18:30 | 52.32563 | 9.90261 | 31251 ft | 403 kts | 8° |
| 2026-04-23 18:30 | 52.35308 | 9.90854 | 31063 ft | 392 kts | 8° |
| 2026-04-23 18:30 | 52.38065 | 9.91451 | 29753 ft | 408 kts | 9° |
| 2026-04-23 18:31 | 52.40954 | 9.92079 | 28095 ft | 429 kts | 8° |
| 2026-04-23 18:31 | 52.43943 | 9.92722 | 27036 ft | 435 kts | 8° |
| 2026-04-23 18:31 | 52.46902 | 9.93355 | 26286 ft | 433 kts | 8° |
| 2026-04-23 18:31 | 52.49927 | 9.94003 | 25664 ft | 432 kts | 7° |
| 2026-04-23 18:32 | 52.52856 | 9.94631 | 25076 ft | 428 kts | 7° |
| 2026-04-23 18:32 | 52.55799 | 9.95266 | 24486 ft | 424 kts | 7° |
| 2026-04-23 18:32 | 52.58708 | 9.95899 | 23911 ft | 418 kts | 7° |
| 2026-04-23 18:32 | 52.61574 | 9.96522 | 23245 ft | 413 kts | 7° |
| 2026-04-23 18:33 | 52.64404 | 9.97190 | 22549 ft | 409 kts | 9° |
| 2026-04-23 18:33 | 52.67192 | 9.98058 | 21845 ft | 406 kts | 11° |
| 2026-04-23 18:33 | 52.69948 | 9.99075 | 21178 ft | 404 kts | 13° |
| 2026-04-23 18:33 | 52.72673 | 10.00157 | 20577 ft | 401 kts | 13° |
| 2026-04-23 18:34 | 52.75374 | 10.01243 | 19966 ft | 398 kts | 13° |
| 2026-04-23 18:34 | 52.78061 | 10.02302 | 19353 ft | 396 kts | 12° |
| 2026-04-23 18:34 | 52.80738 | 10.03325 | 18768 ft | 393 kts | 12° |
| 2026-04-23 18:34 | 52.83398 | 10.04314 | 18137 ft | 391 kts | 12° |
| 2026-04-23 18:35 | 52.86051 | 10.05286 | 17483 ft | 390 kts | 12° |
| 2026-04-23 18:35 | 52.88692 | 10.06251 | 16838 ft | 388 kts | 12° |
| 2026-04-23 18:35 | 52.91322 | 10.07213 | 16207 ft | 385 kts | 12° |
| 2026-04-23 18:35 | 52.93928 | 10.08171 | 15583 ft | 382 kts | 12° |
| 2026-04-23 18:36 | 52.96512 | 10.09126 | 14988 ft | 379 kts | 12° |
| 2026-04-23 18:36 | 52.99074 | 10.10072 | 14398 ft | 376 kts | 12° |
| 2026-04-23 18:36 | 53.01616 | 10.11013 | 13785 ft | 372 kts | 12° |
| 2026-04-23 18:36 | 53.04128 | 10.11943 | 13136 ft | 368 kts | 11° |
| 2026-04-23 18:37 | 53.06614 | 10.12865 | 12494 ft | 364 kts | 11° |
| 2026-04-23 18:37 | 53.09041 | 10.13766 | 11883 ft | 360 kts | 11° |
| 2026-04-23 18:37 | 53.11502 | 10.14683 | 11261 ft | 356 kts | 11° |
| 2026-04-23 18:37 | 53.13873 | 10.15571 | 10669 ft | 352 kts | 11° |
| 2026-04-23 18:38 | 53.16249 | 10.16463 | 10339 ft | 349 kts | 11° |
| 2026-04-23 18:38 | 53.18620 | 10.17350 | 10242 ft | 349 kts | 11° |
| 2026-04-23 18:38 | 53.20990 | 10.18237 | 10259 ft | 350 kts | 11° |
| 2026-04-23 18:38 | 53.23366 | 10.19127 | 10262 ft | 350 kts | 11° |
| 2026-04-23 18:39 | 53.25738 | 10.20015 | 10261 ft | 350 kts | 11° |
| 2026-04-23 18:39 | 53.28113 | 10.20910 | 10265 ft | 350 kts | 11° |
| 2026-04-23 18:39 | 53.30444 | 10.21791 | 10262 ft | 333 kts | 11° |
| 2026-04-23 18:39 | 53.32637 | 10.22624 | 10164 ft | 315 kts | 11° |
| 2026-04-23 18:40 | 53.34728 | 10.23416 | 10038 ft | 300 kts | 11° |
| 2026-04-23 18:40 | 53.36726 | 10.24170 | 9905 ft | 288 kts | 10° |
| 2026-04-23 18:40 | 53.38632 | 10.24889 | 9762 ft | 271 kts | 10° |
| 2026-04-23 18:40 | 53.40398 | 10.25561 | 9622 ft | 250 kts | 10° |
| 2026-04-23 18:41 | 53.42069 | 10.26193 | 9201 ft | 242 kts | 10° |
| 2026-04-23 18:41 | 53.43710 | 10.26806 | 8533 ft | 244 kts | 9° |
| 2026-04-23 18:41 | 53.45416 | 10.27441 | 7845 ft | 256 kts | 10° |
| 2026-04-23 18:41 | 53.47154 | 10.28092 | 7504 ft | 255 kts | 10° |
| 2026-04-23 18:42 | 53.48864 | 10.28740 | 7183 ft | 254 kts | 10° |
| 2026-04-23 18:42 | 53.50589 | 10.29399 | 6871 ft | 253 kts | 10° |
| 2026-04-23 18:42 | 53.52304 | 10.30053 | 6537 ft | 253 kts | 9° |
| 2026-04-23 18:42 | 53.54017 | 10.30704 | 6173 ft | 252 kts | 9° |
| 2026-04-23 18:43 | 53.55725 | 10.31357 | 5801 ft | 252 kts | 9° |
| 2026-04-23 18:43 | 53.57451 | 10.31888 | 5479 ft | 250 kts | 5° |
| 2026-04-23 18:43 | 53.59157 | 10.32265 | 5202 ft | 246 kts | 5° |
| 2026-04-23 18:43 | 53.60845 | 10.32617 | 5006 ft | 244 kts | 5° |
| 2026-04-23 18:44 | 53.62535 | 10.32963 | 4982 ft | 246 kts | 4° |
| 2026-04-23 18:44 | 53.64238 | 10.33314 | 4988 ft | 247 kts | 4° |
| 2026-04-23 18:44 | 53.65943 | 10.33676 | 4986 ft | 247 kts | 4° |
| 2026-04-23 18:44 | 53.67644 | 10.34042 | 4984 ft | 246 kts | 5° |
| 2026-04-23 18:45 | 53.69341 | 10.34403 | 4985 ft | 245 kts | 5° |
| 2026-04-23 18:45 | 53.71035 | 10.34747 | 4985 ft | 245 kts | 2° |
| 2026-04-23 18:45 | 53.72695 | 10.34363 | 4970 ft | 241 kts | 336° |
| 2026-04-23 18:45 | 53.74081 | 10.32931 | 4863 ft | 225 kts | 326° |
| 2026-04-23 18:46 | 53.75267 | 10.31429 | 4632 ft | 210 kts | 319° |
| 2026-04-23 18:46 | 53.76073 | 10.29401 | 4250 ft | 207 kts | 293° |
| 2026-04-23 18:46 | 53.76238 | 10.27027 | 4003 ft | 209 kts | 270° |
| 2026-04-23 18:46 | 53.75852 | 10.24610 | 3805 ft | 222 kts | 242° |
| 2026-04-23 18:47 | 53.74805 | 10.22629 | 3549 ft | 227 kts | 233° |
| 2026-04-23 18:47 | 53.73774 | 10.20674 | 3248 ft | 218 kts | 236° |
| 2026-04-23 18:47 | 53.72815 | 10.18731 | 2957 ft | 214 kts | 237° |
| 2026-04-23 18:47 | 53.71868 | 10.16794 | 2668 ft | 213 kts | 236° |
| 2026-04-23 18:48 | 53.70946 | 10.14915 | 2408 ft | 201 kts | 237° |
| 2026-04-23 18:48 | 53.70073 | 10.13137 | 2132 ft | 192 kts | 238° |
| 2026-04-23 18:48 | 53.69237 | 10.11434 | 1858 ft | 182 kts | 238° |
| 2026-04-23 18:48 | 53.68468 | 10.09875 | 1630 ft | 160 kts | 238° |
| 2026-04-23 18:49 | 53.67799 | 10.08514 | 1407 ft | 144 kts | 239° |
| 2026-04-23 18:49 | 53.67178 | 10.07247 | 1212 ft | 137 kts | 239° |
| 2026-04-23 18:49 | 53.66586 | 10.06037 | 1036 ft | 133 kts | 239° |
| 2026-04-23 18:49 | 53.65998 | 10.04838 | 833 ft | 130 kts | 237° |
| 2026-04-23 18:50 | 53.65610 | 10.04050 | 702 ft | 128 kts | 237° |
| 2026-04-23 18:50 | 53.64866 | 10.02534 | 475 ft | 127 kts | 237° |
| 2026-04-23 18:50 | 53.64300 | 10.01382 | 305 ft | 127 kts | 237° |
| 2026-04-23 18:50 | 53.63746 | 10.00261 | 136 ft | 126 kts | 235° |
| 2026-04-23 18:51 | 53.63214 | 9.99170 | 52 ft | 105 kts | 231° |
| 2026-04-23 18:51 | 53.62851 | 9.98449 | 50 ft | 56 kts | 230° |
| 2026-04-23 18:51 | 53.62666 | 9.98069 | 49 ft | 38 kts | 230° |
| 2026-04-23 18:51 | 53.62545 | 9.97831 | 47 ft | 16 kts | 229° |
| 2026-04-23 18:52 | 53.62454 | 9.97810 | 48 ft | 15 kts | 144° |
| 2026-04-23 18:52 | 53.62435 | 9.97968 | 48 ft | 16 kts | 74° |
| 2026-04-23 18:52 | 53.62466 | 9.98093 | 48 ft | 2 kts | 64° |
| 2026-04-23 18:52 | 53.62486 | 9.98138 | 50 ft | 8 kts | 51° |
| 2026-04-23 18:53 | 53.62533 | 9.98235 | 50 ft | 13 kts | 51° |
| 2026-04-23 18:53 | 53.62599 | 9.98369 | 51 ft | 16 kts | 50° |
| 2026-04-23 18:53 | 53.62678 | 9.98530 | 51 ft | 19 kts | 50° |
| 2026-04-23 18:53 | 53.62772 | 9.98719 | 50 ft | 23 kts | 50° |
| 2026-04-23 18:54 | 53.62879 | 9.98937 | 50 ft | 24 kts | 51° |
| 2026-04-23 18:54 | 53.62959 | 9.99096 | 50 ft | 7 kts | 50° |
| 2026-04-23 18:54 | 53.62997 | 9.99174 | 50 ft | 10 kts | 50° |
| 2026-04-23 18:54 | 53.63048 | 9.99279 | 50 ft | 13 kts | 51° |
| 2026-04-23 18:55 | 53.63105 | 9.99419 | 50 ft | 16 kts | 56° |
| 2026-04-23 18:55 | 53.63180 | 9.99588 | 49 ft | 20 kts | 51° |
| 2026-04-23 18:55 | 53.63239 | 9.99700 | 50 ft | 5 kts | 45° |
| 2026-04-23 18:55 | 53.63257 | 9.99729 | 50 ft | 5 kts | 45° |
| 2026-04-23 18:56 | 53.63276 | 9.99761 | 50 ft | 7 kts | 45° |
| 2026-04-23 18:56 | 53.63323 | 9.99856 | 50 ft | 9 kts | 50° |
| 2026-04-23 18:56 | 53.63362 | 9.99935 | 50 ft | 7 kts | 50° |
| 2026-04-23 18:56 | 53.63395 | 9.99999 | 51 ft | 8 kts | 49° |
| 2026-04-23 18:57 | 53.63429 | 10.00071 | 51 ft | 8 kts | 62° |
| 2026-04-23 18:57 | 53.63411 | 10.00152 | 51 ft | 9 kts | 149° |
| 2026-04-23 18:57 | 53.63361 | 10.00182 | 51 ft | 6 kts | 119° |
| 2026-04-23 18:57 | 53.63368 | 10.00245 | 51 ft | 6 kts | 78° |
| 2026-04-23 18:58 | 53.63372 | 10.00303 | 49 ft | 3 kts | 86° |
| 2026-04-23 18:58 | 53.63373 | 10.00324 | 51 ft | 0 kts | 85° |
| 2026-04-23 18:58 | 53.63373 | 10.00333 | 51 ft | 1 kts | 85° |
| 2026-04-23 18:58 | 53.63373 | 10.00337 | 51 ft | 0 kts | 85° |